sensor_id;sensor_type;location;lat;lon;timestamp;P1;durP1;ratioP1;P2;durP2;ratioP2
21979;SDS011;11154;48.558;9.234;2022-08-19T00:01:38;20.40;;;17.92;;
21979;SDS011;11154;48.558;9.234;2022-08-19T00:03:41;19.90;;;17.88;;
21979;SDS011;11154;48.558;9.234;2022-08-19T00:05:43;20.85;;;18.25;;
21979;SDS011;11154;48.558;9.234;2022-08-19T00:07:47;22.25;;;18.85;;
21979;SDS011;11154;48.558;9.234;2022-08-19T00:09:49;19.48;;;17.48;;
21979;SDS011;11154;48.558;9.234;2022-08-19T00:11:50;21.05;;;18.85;;
21979;SDS011;11154;48.558;9.234;2022-08-19T00:13:53;21.95;;;19.65;;
21979;SDS011;11154;48.558;9.234;2022-08-19T00:15:56;20.70;;;18.52;;
21979;SDS011;11154;48.558;9.234;2022-08-19T00:17:58;20.77;;;18.45;;
21979;SDS011;11154;48.558;9.234;2022-08-19T00:20:00;21.15;;;18.92;;
21979;SDS011;11154;48.558;9.234;2022-08-19T00:22:02;21.02;;;18.92;;
21979;SDS011;11154;48.558;9.234;2022-08-19T00:24:05;21.15;;;18.77;;
21979;SDS011;11154;48.558;9.234;2022-08-19T00:26:08;20.10;;;18.02;;
21979;SDS011;11154;48.558;9.234;2022-08-19T00:28:10;21.25;;;18.45;;
21979;SDS011;11154;48.558;9.234;2022-08-19T00:30:12;21.58;;;18.70;;
21979;SDS011;11154;48.558;9.234;2022-08-19T00:32:14;20.35;;;17.92;;
21979;SDS011;11154;48.558;9.234;2022-08-19T00:34:16;20.48;;;18.25;;
21979;SDS011;11154;48.558;9.234;2022-08-19T00:36:18;19.73;;;17.67;;
21979;SDS011;11154;48.558;9.234;2022-08-19T00:38:19;20.50;;;18.17;;
21979;SDS011;11154;48.558;9.234;2022-08-19T00:40:24;19.75;;;17.65;;
21979;SDS011;11154;48.558;9.234;2022-08-19T00:42:26;23.40;;;18.95;;
21979;SDS011;11154;48.558;9.234;2022-08-19T00:44:29;21.50;;;18.98;;
21979;SDS011;11154;48.558;9.234;2022-08-19T00:46:32;19.88;;;17.88;;
21979;SDS011;11154;48.558;9.234;2022-08-19T00:48:36;22.40;;;19.60;;
21979;SDS011;11154;48.558;9.234;2022-08-19T00:50:38;22.85;;;20.48;;
21979;SDS011;11154;48.558;9.234;2022-08-19T00:52:43;21.95;;;19.75;;
21979;SDS011;11154;48.558;9.234;2022-08-19T00:54:48;21.98;;;18.67;;
21979;SDS011;11154;48.558;9.234;2022-08-19T00:56:52;22.50;;;20.10;;
21979;SDS011;11154;48.558;9.234;2022-08-19T00:58:55;21.67;;;19.42;;
21979;SDS011;11154;48.558;9.234;2022-08-19T01:00:59;21.65;;;18.67;;
21979;SDS011;11154;48.558;9.234;2022-08-19T01:03:01;20.95;;;18.63;;
21979;SDS011;11154;48.558;9.234;2022-08-19T01:05:05;21.77;;;19.55;;
21979;SDS011;11154;48.558;9.234;2022-08-19T01:07:09;22.20;;;18.60;;
21979;SDS011;11154;48.558;9.234;2022-08-19T01:09:11;20.00;;;17.95;;
21979;SDS011;11154;48.558;9.234;2022-08-19T01:11:13;20.25;;;18.13;;
21979;SDS011;11154;48.558;9.234;2022-08-19T01:13:17;20.50;;;18.02;;
21979;SDS011;11154;48.558;9.234;2022-08-19T01:15:22;20.88;;;18.27;;
21979;SDS011;11154;48.558;9.234;2022-08-19T01:17:27;19.40;;;17.27;;
21979;SDS011;11154;48.558;9.234;2022-08-19T01:19:29;22.55;;;19.63;;
21979;SDS011;11154;48.558;9.234;2022-08-19T01:21:38;21.50;;;18.80;;
21979;SDS011;11154;48.558;9.234;2022-08-19T01:23:44;20.15;;;17.98;;
21979;SDS011;11154;48.558;9.234;2022-08-19T01:25:47;21.92;;;18.95;;
21979;SDS011;11154;48.558;9.234;2022-08-19T01:27:51;22.60;;;20.17;;
21979;SDS011;11154;48.558;9.234;2022-08-19T01:29:53;22.63;;;20.30;;
21979;SDS011;11154;48.558;9.234;2022-08-19T01:31:54;23.00;;;20.02;;
21979;SDS011;11154;48.558;9.234;2022-08-19T01:33:56;22.58;;;19.63;;
21979;SDS011;11154;48.558;9.234;2022-08-19T01:36:10;22.63;;;20.25;;
21979;SDS011;11154;48.558;9.234;2022-08-19T01:38:20;21.08;;;18.98;;
21979;SDS011;11154;48.558;9.234;2022-08-19T01:40:26;22.23;;;18.40;;
21979;SDS011;11154;48.558;9.234;2022-08-19T01:42:30;21.42;;;19.20;;
21979;SDS011;11154;48.558;9.234;2022-08-19T01:44:32;20.75;;;18.48;;
21979;SDS011;11154;48.558;9.234;2022-08-19T01:46:36;20.15;;;18.02;;
21979;SDS011;11154;48.558;9.234;2022-08-19T01:48:41;19.58;;;16.58;;
21979;SDS011;11154;48.558;9.234;2022-08-19T01:50:43;18.80;;;16.73;;
21979;SDS011;11154;48.558;9.234;2022-08-19T01:52:45;20.27;;;16.65;;
21979;SDS011;11154;48.558;9.234;2022-08-19T01:54:47;21.33;;;17.00;;
21979;SDS011;11154;48.558;9.234;2022-08-19T01:56:50;20.08;;;15.68;;
21979;SDS011;11154;48.558;9.234;2022-08-19T01:58:54;18.45;;;16.20;;
21979;SDS011;11154;48.558;9.234;2022-08-19T02:00:59;18.77;;;15.88;;
21979;SDS011;11154;48.558;9.234;2022-08-19T02:03:01;20.30;;;16.15;;
21979;SDS011;11154;48.558;9.234;2022-08-19T02:05:02;18.77;;;15.90;;
21979;SDS011;11154;48.558;9.234;2022-08-19T02:07:05;17.35;;;15.52;;
21979;SDS011;11154;48.558;9.234;2022-08-19T02:09:08;18.27;;;16.17;;
21979;SDS011;11154;48.558;9.234;2022-08-19T02:11:17;19.17;;;15.60;;
21979;SDS011;11154;48.558;9.234;2022-08-19T02:13:22;18.85;;;16.13;;
21979;SDS011;11154;48.558;9.234;2022-08-19T02:15:24;16.95;;;15.10;;
21979;SDS011;11154;48.558;9.234;2022-08-19T02:17:26;18.25;;;15.95;;
21979;SDS011;11154;48.558;9.234;2022-08-19T02:19:29;19.13;;;15.68;;
21979;SDS011;11154;48.558;9.234;2022-08-19T02:21:32;17.38;;;15.50;;
21979;SDS011;11154;48.558;9.234;2022-08-19T02:23:34;20.15;;;16.48;;
21979;SDS011;11154;48.558;9.234;2022-08-19T02:25:36;21.05;;;17.25;;
21979;SDS011;11154;48.558;9.234;2022-08-19T02:27:39;20.33;;;17.20;;
21979;SDS011;11154;48.558;9.234;2022-08-19T02:29:42;20.05;;;16.63;;
21979;SDS011;11154;48.558;9.234;2022-08-19T02:31:44;21.88;;;18.60;;
21979;SDS011;11154;48.558;9.234;2022-08-19T02:33:46;20.75;;;18.55;;
21979;SDS011;11154;48.558;9.234;2022-08-19T02:35:48;19.80;;;17.80;;
21979;SDS011;11154;48.558;9.234;2022-08-19T02:37:50;20.58;;;18.33;;
21979;SDS011;11154;48.558;9.234;2022-08-19T02:40:09;19.88;;;17.77;;
21979;SDS011;11154;48.558;9.234;2022-08-19T02:42:12;20.88;;;18.67;;
21979;SDS011;11154;48.558;9.234;2022-08-19T02:44:13;23.23;;;19.70;;
21979;SDS011;11154;48.558;9.234;2022-08-19T02:46:18;19.90;;;17.67;;
21979;SDS011;11154;48.558;9.234;2022-08-19T02:48:22;20.98;;;18.33;;
21979;SDS011;11154;48.558;9.234;2022-08-19T02:50:25;21.25;;;19.02;;
21979;SDS011;11154;48.558;9.234;2022-08-19T02:52:27;21.95;;;18.33;;
21979;SDS011;11154;48.558;9.234;2022-08-19T02:54:29;21.17;;;18.95;;
21979;SDS011;11154;48.558;9.234;2022-08-19T02:56:31;20.20;;;18.08;;
21979;SDS011;11154;48.558;9.234;2022-08-19T02:58:35;20.30;;;17.85;;
21979;SDS011;11154;48.558;9.234;2022-08-19T03:00:40;21.80;;;18.83;;
21979;SDS011;11154;48.558;9.234;2022-08-19T03:02:44;21.63;;;18.75;;
21979;SDS011;11154;48.558;9.234;2022-08-19T03:04:46;19.98;;;17.83;;
21979;SDS011;11154;48.558;9.234;2022-08-19T03:06:48;25.70;;;17.25;;
21979;SDS011;11154;48.558;9.234;2022-08-19T03:08:50;20.45;;;17.95;;
21979;SDS011;11154;48.558;9.234;2022-08-19T03:10:52;20.55;;;17.25;;
21979;SDS011;11154;48.558;9.234;2022-08-19T03:12:54;21.30;;;18.80;;
21979;SDS011;11154;48.558;9.234;2022-08-19T03:14:55;21.52;;;19.10;;
21979;SDS011;11154;48.558;9.234;2022-08-19T03:16:57;21.27;;;18.98;;
21979;SDS011;11154;48.558;9.234;2022-08-19T03:19:01;21.63;;;19.33;;
21979;SDS011;11154;48.558;9.234;2022-08-19T03:21:03;22.58;;;18.92;;
21979;SDS011;11154;48.558;9.234;2022-08-19T03:23:06;22.02;;;19.73;;
21979;SDS011;11154;48.558;9.234;2022-08-19T03:25:07;21.60;;;18.45;;
21979;SDS011;11154;48.558;9.234;2022-08-19T03:27:09;20.02;;;17.92;;
21979;SDS011;11154;48.558;9.234;2022-08-19T03:29:12;21.40;;;17.98;;
21979;SDS011;11154;48.558;9.234;2022-08-19T03:31:14;20.77;;;18.48;;
21979;SDS011;11154;48.558;9.234;2022-08-19T03:33:16;20.88;;;18.20;;
21979;SDS011;11154;48.558;9.234;2022-08-19T03:35:20;19.55;;;17.20;;
21979;SDS011;11154;48.558;9.234;2022-08-19T03:37:21;21.95;;;18.95;;
21979;SDS011;11154;48.558;9.234;2022-08-19T03:39:24;21.25;;;19.00;;
21979;SDS011;11154;48.558;9.234;2022-08-19T03:41:27;21.75;;;18.52;;
21979;SDS011;11154;48.558;9.234;2022-08-19T03:43:30;21.38;;;18.60;;
21979;SDS011;11154;48.558;9.234;2022-08-19T03:45:32;19.90;;;17.75;;
21979;SDS011;11154;48.558;9.234;2022-08-19T03:47:33;19.83;;;17.70;;
21979;SDS011;11154;48.558;9.234;2022-08-19T03:49:35;20.75;;;17.30;;
21979;SDS011;11154;48.558;9.234;2022-08-19T03:51:38;21.00;;;17.17;;
21979;SDS011;11154;48.558;9.234;2022-08-19T03:53:40;21.98;;;17.98;;
21979;SDS011;11154;48.558;9.234;2022-08-19T03:55:42;24.10;;;18.10;;
21979;SDS011;11154;48.558;9.234;2022-08-19T03:57:44;23.23;;;18.50;;
21979;SDS011;11154;48.558;9.234;2022-08-19T03:59:48;22.27;;;19.10;;
21979;SDS011;11154;48.558;9.234;2022-08-19T04:01:50;23.40;;;19.05;;
21979;SDS011;11154;48.558;9.234;2022-08-19T04:03:52;21.25;;;18.95;;
21979;SDS011;11154;48.558;9.234;2022-08-19T04:05:54;20.45;;;18.35;;
21979;SDS011;11154;48.558;9.234;2022-08-19T04:07:58;20.30;;;18.20;;
21979;SDS011;11154;48.558;9.234;2022-08-19T04:10:00;21.73;;;19.25;;
21979;SDS011;11154;48.558;9.234;2022-08-19T04:12:03;21.73;;;19.08;;
21979;SDS011;11154;48.558;9.234;2022-08-19T04:14:06;22.35;;;19.33;;
21979;SDS011;11154;48.558;9.234;2022-08-19T04:16:09;25.02;;;19.65;;
21979;SDS011;11154;48.558;9.234;2022-08-19T04:18:12;21.40;;;19.15;;
21979;SDS011;11154;48.558;9.234;2022-08-19T04:20:14;25.73;;;19.95;;
21979;SDS011;11154;48.558;9.234;2022-08-19T04:22:15;23.83;;;20.15;;
21979;SDS011;11154;48.558;9.234;2022-08-19T04:24:20;23.20;;;18.92;;
21979;SDS011;11154;48.558;9.234;2022-08-19T04:26:23;22.77;;;19.90;;
21979;SDS011;11154;48.558;9.234;2022-08-19T04:28:28;23.85;;;20.00;;
21979;SDS011;11154;48.558;9.234;2022-08-19T04:30:30;24.48;;;19.67;;
21979;SDS011;11154;48.558;9.234;2022-08-19T04:32:32;22.45;;;19.35;;
21979;SDS011;11154;48.558;9.234;2022-08-19T04:34:35;22.73;;;19.13;;
21979;SDS011;11154;48.558;9.234;2022-08-19T04:36:38;22.52;;;19.25;;
21979;SDS011;11154;48.558;9.234;2022-08-19T04:38:42;24.77;;;19.05;;
21979;SDS011;11154;48.558;9.234;2022-08-19T04:40:46;21.70;;;19.08;;
21979;SDS011;11154;48.558;9.234;2022-08-19T04:43:06;23.33;;;19.88;;
21979;SDS011;11154;48.558;9.234;2022-08-19T04:45:10;23.42;;;20.50;;
21979;SDS011;11154;48.558;9.234;2022-08-19T04:47:14;23.15;;;19.80;;
21979;SDS011;11154;48.558;9.234;2022-08-19T04:49:16;23.90;;;19.83;;
21979;SDS011;11154;48.558;9.234;2022-08-19T04:51:20;24.70;;;20.42;;
21979;SDS011;11154;48.558;9.234;2022-08-19T04:53:21;23.13;;;20.00;;
21979;SDS011;11154;48.558;9.234;2022-08-19T04:55:23;21.45;;;19.00;;
21979;SDS011;11154;48.558;9.234;2022-08-19T04:57:27;22.60;;;19.13;;
21979;SDS011;11154;48.558;9.234;2022-08-19T04:59:29;24.35;;;20.17;;
21979;SDS011;11154;48.558;9.234;2022-08-19T05:01:32;24.50;;;19.45;;
21979;SDS011;11154;48.558;9.234;2022-08-19T05:03:36;25.75;;;20.17;;
21979;SDS011;11154;48.558;9.234;2022-08-19T05:05:38;23.73;;;20.17;;
21979;SDS011;11154;48.558;9.234;2022-08-19T05:07:41;24.15;;;20.63;;
21979;SDS011;11154;48.558;9.234;2022-08-19T05:09:43;26.00;;;20.65;;
21979;SDS011;11154;48.558;9.234;2022-08-19T05:11:44;25.48;;;21.05;;
21979;SDS011;11154;48.558;9.234;2022-08-19T05:13:47;24.27;;;19.85;;
21979;SDS011;11154;48.558;9.234;2022-08-19T05:15:53;23.50;;;20.55;;
21979;SDS011;11154;48.558;9.234;2022-08-19T05:17:56;25.02;;;20.65;;
21979;SDS011;11154;48.558;9.234;2022-08-19T05:20:15;24.43;;;20.40;;
21979;SDS011;11154;48.558;9.234;2022-08-19T05:22:34;23.35;;;20.75;;
21979;SDS011;11154;48.558;9.234;2022-08-19T05:24:37;24.45;;;20.88;;
21979;SDS011;11154;48.558;9.234;2022-08-19T05:26:39;26.60;;;20.83;;
21979;SDS011;11154;48.558;9.234;2022-08-19T05:28:42;24.65;;;21.27;;
21979;SDS011;11154;48.558;9.234;2022-08-19T05:30:45;23.17;;;19.58;;
21979;SDS011;11154;48.558;9.234;2022-08-19T05:32:48;26.95;;;21.73;;
21979;SDS011;11154;48.558;9.234;2022-08-19T05:34:49;25.75;;;20.98;;
21979;SDS011;11154;48.558;9.234;2022-08-19T05:36:52;23.83;;;19.98;;
21979;SDS011;11154;48.558;9.234;2022-08-19T05:38:56;23.33;;;20.50;;
21979;SDS011;11154;48.558;9.234;2022-08-19T05:40:58;25.92;;;20.83;;
21979;SDS011;11154;48.558;9.234;2022-08-19T05:43:00;24.42;;;20.77;;
21979;SDS011;11154;48.558;9.234;2022-08-19T05:45:02;23.02;;;19.88;;
21979;SDS011;11154;48.558;9.234;2022-08-19T05:47:06;24.63;;;21.65;;
21979;SDS011;11154;48.558;9.234;2022-08-19T05:49:09;27.50;;;21.05;;
21979;SDS011;11154;48.558;9.234;2022-08-19T05:51:11;24.30;;;20.95;;
21979;SDS011;11154;48.558;9.234;2022-08-19T05:53:13;26.02;;;20.85;;
21979;SDS011;11154;48.558;9.234;2022-08-19T05:55:16;24.77;;;20.45;;
21979;SDS011;11154;48.558;9.234;2022-08-19T05:57:20;26.25;;;20.75;;
21979;SDS011;11154;48.558;9.234;2022-08-19T05:59:21;26.70;;;22.23;;
21979;SDS011;11154;48.558;9.234;2022-08-19T06:01:24;24.58;;;20.40;;
21979;SDS011;11154;48.558;9.234;2022-08-19T06:03:28;25.65;;;21.40;;
21979;SDS011;11154;48.558;9.234;2022-08-19T06:05:30;24.63;;;20.70;;
21979;SDS011;11154;48.558;9.234;2022-08-19T06:07:32;25.75;;;22.13;;
21979;SDS011;11154;48.558;9.234;2022-08-19T06:09:34;27.65;;;22.00;;
21979;SDS011;11154;48.558;9.234;2022-08-19T06:11:38;24.45;;;20.85;;
21979;SDS011;11154;48.558;9.234;2022-08-19T06:13:43;26.50;;;21.60;;
21979;SDS011;11154;48.558;9.234;2022-08-19T06:15:51;27.55;;;21.67;;
21979;SDS011;11154;48.558;9.234;2022-08-19T06:17:52;27.00;;;22.67;;
21979;SDS011;11154;48.558;9.234;2022-08-19T06:19:55;29.20;;;23.45;;
21979;SDS011;11154;48.558;9.234;2022-08-19T06:21:58;32.97;;;23.08;;
21979;SDS011;11154;48.558;9.234;2022-08-19T06:24:01;27.60;;;22.80;;
21979;SDS011;11154;48.558;9.234;2022-08-19T06:26:03;27.00;;;22.42;;
21979;SDS011;11154;48.558;9.234;2022-08-19T06:28:05;26.45;;;22.90;;
21979;SDS011;11154;48.558;9.234;2022-08-19T06:30:07;26.73;;;22.20;;
21979;SDS011;11154;48.558;9.234;2022-08-19T06:32:10;29.70;;;23.15;;
21979;SDS011;11154;48.558;9.234;2022-08-19T06:34:12;26.30;;;21.92;;
21979;SDS011;11154;48.558;9.234;2022-08-19T06:36:19;30.27;;;23.77;;
21979;SDS011;11154;48.558;9.234;2022-08-19T06:38:21;26.23;;;22.38;;
21979;SDS011;11154;48.558;9.234;2022-08-19T06:40:23;27.40;;;23.10;;
21979;SDS011;11154;48.558;9.234;2022-08-19T06:42:27;28.65;;;23.85;;
21979;SDS011;11154;48.558;9.234;2022-08-19T06:44:30;29.88;;;23.77;;
21979;SDS011;11154;48.558;9.234;2022-08-19T06:46:35;31.05;;;22.77;;
21979;SDS011;11154;48.558;9.234;2022-08-19T06:48:37;30.55;;;24.58;;
21979;SDS011;11154;48.558;9.234;2022-08-19T06:50:38;29.20;;;24.77;;
21979;SDS011;11154;48.558;9.234;2022-08-19T06:52:41;31.05;;;24.55;;
21979;SDS011;11154;48.558;9.234;2022-08-19T06:54:43;26.45;;;23.42;;
21979;SDS011;11154;48.558;9.234;2022-08-19T06:56:45;29.38;;;23.98;;
21979;SDS011;11154;48.558;9.234;2022-08-19T06:58:47;26.80;;;23.00;;
21979;SDS011;11154;48.558;9.234;2022-08-19T07:00:51;28.70;;;22.63;;
21979;SDS011;11154;48.558;9.234;2022-08-19T07:02:52;29.08;;;24.90;;
21979;SDS011;11154;48.558;9.234;2022-08-19T07:04:54;30.73;;;24.08;;
21979;SDS011;11154;48.558;9.234;2022-08-19T07:06:58;29.83;;;23.67;;
21979;SDS011;11154;48.558;9.234;2022-08-19T07:09:02;28.35;;;24.13;;
21979;SDS011;11154;48.558;9.234;2022-08-19T07:11:05;28.25;;;24.30;;
21979;SDS011;11154;48.558;9.234;2022-08-19T07:13:08;29.92;;;23.98;;
21979;SDS011;11154;48.558;9.234;2022-08-19T07:15:10;29.42;;;24.77;;
21979;SDS011;11154;48.558;9.234;2022-08-19T07:17:12;31.63;;;24.63;;
21979;SDS011;11154;48.558;9.234;2022-08-19T07:19:15;29.60;;;23.80;;
21979;SDS011;11154;48.558;9.234;2022-08-19T07:21:18;32.30;;;24.63;;
21979;SDS011;11154;48.558;9.234;2022-08-19T07:23:22;30.23;;;25.38;;
21979;SDS011;11154;48.558;9.234;2022-08-19T07:25:25;28.77;;;24.30;;
21979;SDS011;11154;48.558;9.234;2022-08-19T07:27:27;30.95;;;24.55;;
21979;SDS011;11154;48.558;9.234;2022-08-19T07:29:29;30.60;;;24.95;;
21979;SDS011;11154;48.558;9.234;2022-08-19T07:31:33;31.88;;;24.70;;
21979;SDS011;11154;48.558;9.234;2022-08-19T07:33:36;30.08;;;24.23;;
21979;SDS011;11154;48.558;9.234;2022-08-19T07:35:38;30.80;;;25.77;;
21979;SDS011;11154;48.558;9.234;2022-08-19T07:37:40;31.13;;;25.30;;
21979;SDS011;11154;48.558;9.234;2022-08-19T07:39:44;31.30;;;25.95;;
21979;SDS011;11154;48.558;9.234;2022-08-19T07:41:47;30.73;;;25.77;;
21979;SDS011;11154;48.558;9.234;2022-08-19T07:43:50;31.05;;;25.90;;
21979;SDS011;11154;48.558;9.234;2022-08-19T07:45:53;29.48;;;25.27;;
21979;SDS011;11154;48.558;9.234;2022-08-19T07:47:56;31.42;;;25.85;;
21979;SDS011;11154;48.558;9.234;2022-08-19T07:49:59;29.02;;;25.10;;
21979;SDS011;11154;48.558;9.234;2022-08-19T07:52:01;29.92;;;25.30;;
21979;SDS011;11154;48.558;9.234;2022-08-19T07:54:05;32.78;;;26.75;;
21979;SDS011;11154;48.558;9.234;2022-08-19T07:56:06;30.45;;;25.45;;
21979;SDS011;11154;48.558;9.234;2022-08-19T07:58:10;30.88;;;25.27;;
21979;SDS011;11154;48.558;9.234;2022-08-19T08:00:14;26.55;;;23.60;;
21979;SDS011;11154;48.558;9.234;2022-08-19T08:02:16;30.63;;;25.58;;
21979;SDS011;11154;48.558;9.234;2022-08-19T08:04:18;32.83;;;24.85;;
21979;SDS011;11154;48.558;9.234;2022-08-19T08:06:38;30.38;;;25.58;;
21979;SDS011;11154;48.558;9.234;2022-08-19T08:08:57;30.13;;;25.02;;
21979;SDS011;11154;48.558;9.234;2022-08-19T08:11:20;31.55;;;26.42;;
21979;SDS011;11154;48.558;9.234;2022-08-19T08:13:23;30.17;;;25.05;;
21979;SDS011;11154;48.558;9.234;2022-08-19T08:15:26;30.58;;;25.38;;
21979;SDS011;11154;48.558;9.234;2022-08-19T08:17:28;34.28;;;27.95;;
21979;SDS011;11154;48.558;9.234;2022-08-19T08:19:32;29.58;;;24.83;;
21979;SDS011;11154;48.558;9.234;2022-08-19T08:21:34;30.48;;;24.80;;
21979;SDS011;11154;48.558;9.234;2022-08-19T08:23:35;29.67;;;24.95;;
21979;SDS011;11154;48.558;9.234;2022-08-19T08:25:36;30.73;;;24.77;;
21979;SDS011;11154;48.558;9.234;2022-08-19T08:27:39;30.30;;;24.70;;
21979;SDS011;11154;48.558;9.234;2022-08-19T08:29:43;32.30;;;25.38;;
21979;SDS011;11154;48.558;9.234;2022-08-19T08:31:45;29.63;;;24.65;;
21979;SDS011;11154;48.558;9.234;2022-08-19T08:33:48;30.00;;;25.73;;
21979;SDS011;11154;48.558;9.234;2022-08-19T08:35:49;28.80;;;24.60;;
21979;SDS011;11154;48.558;9.234;2022-08-19T08:37:53;31.05;;;25.13;;
21979;SDS011;11154;48.558;9.234;2022-08-19T08:39:56;30.05;;;25.90;;
21979;SDS011;11154;48.558;9.234;2022-08-19T08:41:59;29.75;;;25.65;;
21979;SDS011;11154;48.558;9.234;2022-08-19T08:44:20;29.33;;;24.73;;
21979;SDS011;11154;48.558;9.234;2022-08-19T08:46:28;33.83;;;25.75;;
21979;SDS011;11154;48.558;9.234;2022-08-19T08:48:42;28.75;;;24.55;;
21979;SDS011;11154;48.558;9.234;2022-08-19T08:50:50;30.98;;;25.35;;
21979;SDS011;11154;48.558;9.234;2022-08-19T08:52:56;32.63;;;25.67;;
21979;SDS011;11154;48.558;9.234;2022-08-19T08:55:00;29.20;;;25.42;;
21979;SDS011;11154;48.558;9.234;2022-08-19T08:57:07;30.50;;;25.63;;
21979;SDS011;11154;48.558;9.234;2022-08-19T08:59:16;31.00;;;26.48;;
21979;SDS011;11154;48.558;9.234;2022-08-19T09:01:22;31.70;;;25.63;;
21979;SDS011;11154;48.558;9.234;2022-08-19T09:03:26;28.95;;;25.85;;
21979;SDS011;11154;48.558;9.234;2022-08-19T09:05:32;28.48;;;24.83;;
21979;SDS011;11154;48.558;9.234;2022-08-19T09:07:43;29.30;;;24.70;;
21979;SDS011;11154;48.558;9.234;2022-08-19T09:09:51;31.92;;;25.70;;
21979;SDS011;11154;48.558;9.234;2022-08-19T09:11:58;29.13;;;24.30;;
21979;SDS011;11154;48.558;9.234;2022-08-19T09:14:12;29.52;;;25.25;;
21979;SDS011;11154;48.558;9.234;2022-08-19T09:16:21;31.42;;;25.85;;
21979;SDS011;11154;48.558;9.234;2022-08-19T09:18:30;32.95;;;27.02;;
21979;SDS011;11154;48.558;9.234;2022-08-19T09:20:40;30.70;;;26.27;;
21979;SDS011;11154;48.558;9.234;2022-08-19T09:22:42;31.90;;;26.15;;
21979;SDS011;11154;48.558;9.234;2022-08-19T09:24:44;31.05;;;26.08;;
21979;SDS011;11154;48.558;9.234;2022-08-19T09:26:46;30.63;;;25.75;;
21979;SDS011;11154;48.558;9.234;2022-08-19T09:28:48;30.75;;;25.30;;
21979;SDS011;11154;48.558;9.234;2022-08-19T09:30:52;30.25;;;24.95;;
21979;SDS011;11154;48.558;9.234;2022-08-19T09:32:54;29.35;;;25.70;;
21979;SDS011;11154;48.558;9.234;2022-08-19T09:34:57;28.75;;;25.08;;
21979;SDS011;11154;48.558;9.234;2022-08-19T09:37:00;30.42;;;25.65;;
21979;SDS011;11154;48.558;9.234;2022-08-19T09:39:03;29.00;;;24.48;;
21979;SDS011;11154;48.558;9.234;2022-08-19T09:41:05;32.35;;;23.45;;
21979;SDS011;11154;48.558;9.234;2022-08-19T09:43:08;26.80;;;23.80;;
21979;SDS011;11154;48.558;9.234;2022-08-19T09:45:10;31.50;;;25.75;;
21979;SDS011;11154;48.558;9.234;2022-08-19T09:47:12;29.77;;;25.90;;
21979;SDS011;11154;48.558;9.234;2022-08-19T09:49:15;29.98;;;25.10;;
21979;SDS011;11154;48.558;9.234;2022-08-19T09:51:20;29.73;;;25.33;;
21979;SDS011;11154;48.558;9.234;2022-08-19T09:53:23;30.83;;;26.15;;
21979;SDS011;11154;48.558;9.234;2022-08-19T09:55:25;29.33;;;24.92;;
21979;SDS011;11154;48.558;9.234;2022-08-19T09:57:27;31.08;;;26.52;;
21979;SDS011;11154;48.558;9.234;2022-08-19T09:59:28;29.52;;;25.80;;
21979;SDS011;11154;48.558;9.234;2022-08-19T10:01:30;30.42;;;25.92;;
21979;SDS011;11154;48.558;9.234;2022-08-19T10:03:34;27.58;;;24.55;;
21979;SDS011;11154;48.558;9.234;2022-08-19T10:05:36;30.00;;;25.95;;
21979;SDS011;11154;48.558;9.234;2022-08-19T10:07:50;30.77;;;25.95;;
21979;SDS011;11154;48.558;9.234;2022-08-19T10:09:52;29.08;;;25.27;;
21979;SDS011;11154;48.558;9.234;2022-08-19T10:11:54;27.30;;;23.30;;
21979;SDS011;11154;48.558;9.234;2022-08-19T10:13:56;31.52;;;25.80;;
21979;SDS011;11154;48.558;9.234;2022-08-19T10:16:02;28.88;;;24.85;;
21979;SDS011;11154;48.558;9.234;2022-08-19T10:18:06;32.30;;;25.63;;
21979;SDS011;11154;48.558;9.234;2022-08-19T10:20:09;30.17;;;25.55;;
21979;SDS011;11154;48.558;9.234;2022-08-19T10:22:11;29.90;;;25.20;;
21979;SDS011;11154;48.558;9.234;2022-08-19T10:24:16;31.52;;;24.85;;
21979;SDS011;11154;48.558;9.234;2022-08-19T10:26:19;29.50;;;25.10;;
21979;SDS011;11154;48.558;9.234;2022-08-19T10:28:22;27.88;;;24.77;;
21979;SDS011;11154;48.558;9.234;2022-08-19T10:30:24;32.38;;;25.60;;
21979;SDS011;11154;48.558;9.234;2022-08-19T10:32:26;31.67;;;26.13;;
21979;SDS011;11154;48.558;9.234;2022-08-19T10:34:29;29.40;;;25.02;;
21979;SDS011;11154;48.558;9.234;2022-08-19T10:36:36;30.70;;;26.15;;
21979;SDS011;11154;48.558;9.234;2022-08-19T10:38:38;31.75;;;25.85;;
21979;SDS011;11154;48.558;9.234;2022-08-19T10:40:41;30.58;;;26.40;;
21979;SDS011;11154;48.558;9.234;2022-08-19T10:42:43;30.33;;;25.45;;
21979;SDS011;11154;48.558;9.234;2022-08-19T10:44:45;27.55;;;24.40;;
21979;SDS011;11154;48.558;9.234;2022-08-19T10:46:48;29.83;;;26.05;;
21979;SDS011;11154;48.558;9.234;2022-08-19T10:48:50;27.33;;;24.23;;
21979;SDS011;11154;48.558;9.234;2022-08-19T10:50:52;32.50;;;26.25;;
21979;SDS011;11154;48.558;9.234;2022-08-19T10:53:12;30.83;;;26.50;;
21979;SDS011;11154;48.558;9.234;2022-08-19T10:55:14;34.50;;;27.55;;
21979;SDS011;11154;48.558;9.234;2022-08-19T10:57:35;32.85;;;26.30;;
21979;SDS011;11154;48.558;9.234;2022-08-19T10:59:37;28.88;;;25.70;;
21979;SDS011;11154;48.558;9.234;2022-08-19T11:01:39;32.17;;;25.80;;
21979;SDS011;11154;48.558;9.234;2022-08-19T11:03:42;30.42;;;25.42;;
21979;SDS011;11154;48.558;9.234;2022-08-19T11:05:45;31.05;;;26.58;;
21979;SDS011;11154;48.558;9.234;2022-08-19T11:07:48;31.95;;;26.33;;
21979;SDS011;11154;48.558;9.234;2022-08-19T11:09:51;29.35;;;25.40;;
21979;SDS011;11154;48.558;9.234;2022-08-19T11:11:53;28.90;;;25.52;;
21979;SDS011;11154;48.558;9.234;2022-08-19T11:13:57;30.83;;;25.98;;
21979;SDS011;11154;48.558;9.234;2022-08-19T11:16:03;29.73;;;25.42;;
21979;SDS011;11154;48.558;9.234;2022-08-19T11:18:06;29.00;;;25.20;;
21979;SDS011;11154;48.558;9.234;2022-08-19T11:20:09;28.33;;;24.50;;
21979;SDS011;11154;48.558;9.234;2022-08-19T11:22:12;28.52;;;25.42;;
21979;SDS011;11154;48.558;9.234;2022-08-19T11:24:15;30.60;;;24.83;;
21979;SDS011;11154;48.558;9.234;2022-08-19T11:26:20;29.20;;;25.02;;
21979;SDS011;11154;48.558;9.234;2022-08-19T11:28:23;32.33;;;26.45;;
21979;SDS011;11154;48.558;9.234;2022-08-19T11:30:26;30.35;;;26.73;;
21979;SDS011;11154;48.558;9.234;2022-08-19T11:32:28;32.35;;;27.70;;
21979;SDS011;11154;48.558;9.234;2022-08-19T11:34:29;30.08;;;26.38;;
21979;SDS011;11154;48.558;9.234;2022-08-19T11:36:32;29.83;;;25.48;;
21979;SDS011;11154;48.558;9.234;2022-08-19T11:38:34;30.10;;;25.63;;
21979;SDS011;11154;48.558;9.234;2022-08-19T11:40:37;34.17;;;26.83;;
21979;SDS011;11154;48.558;9.234;2022-08-19T11:42:38;29.42;;;24.55;;
21979;SDS011;11154;48.558;9.234;2022-08-19T11:44:58;31.45;;;26.90;;
21979;SDS011;11154;48.558;9.234;2022-08-19T11:47:02;29.88;;;25.92;;
21979;SDS011;11154;48.558;9.234;2022-08-19T11:49:04;30.08;;;26.23;;
21979;SDS011;11154;48.558;9.234;2022-08-19T11:51:10;30.20;;;25.63;;
21979;SDS011;11154;48.558;9.234;2022-08-19T11:53:14;30.48;;;25.80;;
21979;SDS011;11154;48.558;9.234;2022-08-19T11:55:17;28.55;;;24.90;;
21979;SDS011;11154;48.558;9.234;2022-08-19T11:57:19;29.20;;;25.45;;
21979;SDS011;11154;48.558;9.234;2022-08-19T11:59:20;29.80;;;24.88;;
21979;SDS011;11154;48.558;9.234;2022-08-19T12:01:23;32.88;;;25.73;;
21979;SDS011;11154;48.558;9.234;2022-08-19T12:03:27;31.48;;;26.73;;